Time;durP1;ratioP1;P1;durP2;ratioP2;P2;SDS_P1;SDS_P2;PMS_P1;PMS_P2;Temp;Humidity;BMP_temperature;BMP_pressure;BME280_temperature;BME280_humidity;BME280_pressure;Samples;Min_cycle;Max_cycle;Signal;HPM_P1;HPM_P2
2022/08/16 00:00:32;;;;;;;6.22;4.70;;;16.50;96.40;;;;;;5058093;28;20371;-67
2022/08/16 00:02:59;;;;;;;10.15;5.90;;;16.50;96.40;;;;;;5058462;28;20029;-67
2022/08/16 00:05:25;;;;;;;10.20;5.43;;;16.50;96.50;;;;;;5058019;28;20410;-67
2022/08/16 00:07:51;;;;;;;8.48;5.63;;;16.50;96.40;;;;;;5060727;28;20393;-67
2022/08/16 00:10:19;;;;;;;9.00;5.50;;;16.50;96.60;;;;;;5056734;28;20302;-67
2022/08/16 00:12:45;;;;;;;9.15;5.55;;;16.30;96.60;;;;;;5070353;28;20032;-67
2022/08/16 00:15:24;;;;;;;10.75;5.35;;;16.30;96.70;;;;;;5077722;28;20077;-67
2022/08/16 00:17:50;;;;;;;9.60;5.75;;;16.40;96.80;;;;;;5075396;28;20166;-67
2022/08/16 00:20:17;;;;;;;9.75;5.10;;;16.40;96.90;;;;;;5077632;28;20025;-67
2022/08/16 00:22:43;;;;;;;9.85;4.85;;;16.40;96.70;;;;;;5066723;28;20047;-67
2022/08/16 00:25:12;;;;;;;8.15;5.53;;;16.30;96.70;;;;;;5056581;28;20021;-67
2022/08/16 00:27:38;;;;;;;8.40;5.18;;;16.30;96.80;;;;;;5059869;28;20033;-67
2022/08/16 00:30:06;;;;;;;7.68;5.22;;;16.40;96.80;;;;;;5057635;28;20028;-67
2022/08/16 00:32:32;;;;;;;8.75;4.93;;;16.60;96.50;;;;;;5057932;28;20029;-67
2022/08/16 00:34:58;;;;;;;8.07;4.72;;;16.80;96.30;;;;;;5057321;28;20071;-67
2022/08/16 00:37:27;;;;;;;6.78;4.70;;;17.00;95.90;;;;;;5059900;28;20091;-67
2022/08/16 00:39:53;;;;;;;6.65;4.63;;;17.00;95.80;;;;;;5056692;28;20044;-66
2022/08/16 00:42:19;;;;;;;6.80;4.55;;;17.10;95.60;;;;;;5064126;28;20043;-65
2022/08/16 00:44:52;;;;;;;8.10;4.82;;;17.20;95.40;;;;;;5073180;28;20025;-65
2022/08/16 00:47:23;;;;;;;7.13;4.50;;;17.40;95.10;;;;;;5065770;28;20425;-66
2022/08/16 00:49:49;;;;;;;7.13;4.25;;;17.50;94.70;;;;;;5073019;28;20279;-65
2022/08/16 00:52:15;;;;;;;8.85;4.65;;;17.50;94.70;;;;;;5063058;28;20078;-67
2022/08/16 00:54:41;;;;;;;6.65;4.47;;;17.50;94.60;;;;;;5073398;28;20041;-68
2022/08/16 00:57:07;;;;;;;9.18;4.72;;;17.50;94.80;;;;;;5057944;28;20021;-67
2022/08/16 00:59:38;;;;;;;7.38;4.45;;;17.40;94.90;;;;;;5058510;28;20448;-67
2022/08/16 01:02:07;;;;;;;6.78;4.47;;;17.40;95.00;;;;;;5060986;28;20032;-67
2022/08/16 01:04:34;;;;;;;9.68;4.72;;;17.40;95.00;;;;;;5077836;28;20024;-67
2022/08/16 01:07:02;;;;;;;6.40;4.47;;;17.40;94.90;;;;;;5056736;28;20025;-67
2022/08/16 01:09:32;;;;;;;7.53;4.22;;;17.40;95.00;;;;;;5055438;28;20053;-67
2022/08/16 01:11:59;;;;;;;9.32;4.75;;;17.20;95.10;;;;;;5072678;28;20029;-67
2022/08/16 01:14:30;;;;;;;7.57;4.82;;;17.20;94.90;;;;;;5066264;28;20031;-67
2022/08/16 01:17:00;;;;;;;7.97;4.68;;;17.20;95.20;;;;;;5057943;28;20033;-67
2022/08/16 01:19:35;;;;;;;7.93;4.97;;;17.10;95.30;;;;;;5056469;28;20021;-66
2022/08/16 01:22:45;;;;;;;7.22;4.70;;;17.00;95.40;;;;;;5074495;28;20111;-67
2022/08/16 01:25:16;;;;;;;12.02;4.75;;;16.90;95.70;;;;;;5057071;28;20102;-67
2022/08/16 01:27:47;;;;;;;8.57;5.10;;;16.90;95.60;;;;;;5056421;28;20021;-67
2022/08/16 01:30:22;;;;;;;7.40;4.60;;;16.90;95.60;;;;;;5056758;28;20032;-67
2022/08/16 01:32:49;;;;;;;8.55;4.88;;;16.90;95.70;;;;;;5065811;28;20055;-66
2022/08/16 01:35:22;;;;;;;9.07;5.13;;;16.80;95.90;;;;;;5072369;28;20427;-67
2022/08/16 01:37:54;;;;;;;8.85;5.00;;;16.70;96.10;;;;;;5070376;28;20021;-67
2022/08/16 01:40:25;;;;;;;11.68;5.65;;;16.70;96.10;;;;;;5074185;28;20033;-67
2022/08/16 01:42:54;;;;;;;8.65;5.30;;;16.70;96.10;;;;;;5075457;28;20418;-67
2022/08/16 01:45:20;;;;;;;8.30;5.00;;;16.80;95.90;;;;;;5072508;28;20418;-67
2022/08/16 01:47:49;;;;;;;7.80;5.60;;;16.90;95.70;;;;;;5056166;28;20071;-67
2022/08/16 01:50:15;;;;;;;8.65;5.40;;;16.80;95.80;;;;;;5056660;28;20109;-67
2022/08/16 01:52:42;;;;;;;8.05;5.00;;;16.80;95.80;;;;;;5067063;28;20382;-67
2022/08/16 01:55:09;;;;;;;9.18;5.65;;;16.60;96.00;;;;;;5069612;28;20024;-67
2022/08/16 01:57:34;;;;;;;11.18;5.22;;;16.50;96.20;;;;;;5056221;28;20074;-67
2022/08/16 02:00:03;;;;;;;14.85;6.40;;;16.30;96.50;;;;;;5056021;28;20021;-67
2022/08/16 02:02:29;;;;;;;9.55;5.75;;;16.20;96.70;;;;;;5064033;28;20477;-67
2022/08/16 02:04:55;;;;;;;10.77;5.90;;;16.20;96.70;;;;;;5074656;28;20160;-67
2022/08/16 02:07:21;;;;;;;8.80;6.28;;;16.20;96.70;;;;;;5059104;28;20057;-67
2022/08/16 02:09:47;;;;;;;8.27;6.00;;;16.20;96.70;;;;;;5054499;28;20068;-67
2022/08/16 02:12:15;;;;;;;8.27;5.80;;;16.10;96.70;;;;;;5061475;28;20039;-67
2022/08/16 02:14:41;;;;;;;10.98;5.75;;;16.20;96.80;;;;;;5076330;28;20671;-67
2022/08/16 02:17:10;;;;;;;9.05;6.53;;;16.30;96.70;;;;;;5073800;28;20024;-67
2022/08/16 02:19:41;;;;;;;8.77;5.88;;;16.20;96.70;;;;;;5075929;28;20017;-67
2022/08/16 02:22:17;;;;;;;8.98;6.20;;;16.20;96.70;;;;;;5062681;28;20029;-67
2022/08/16 02:24:42;;;;;;;9.60;5.97;;;16.20;96.80;;;;;;5055879;28;20033;-67
2022/08/16 02:27:09;;;;;;;10.98;6.05;;;16.20;96.70;;;;;;5055749;28;20113;-67
2022/08/16 02:29:36;;;;;;;9.13;5.90;;;16.10;96.80;;;;;;5056034;28;20074;-67
2022/08/16 02:32:03;;;;;;;8.85;6.00;;;16.20;96.90;;;;;;5055605;28;20033;-67
2022/08/16 02:34:29;;;;;;;9.80;6.03;;;16.10;96.80;;;;;;5057921;28;20072;-67
2022/08/16 02:36:54;;;;;;;9.20;5.93;;;16.10;96.80;;;;;;5055503;28;20064;-67
2022/08/16 02:39:20;;;;;;;10.10;6.05;;;16.10;96.80;;;;;;5055031;28;20025;-67
2022/08/16 02:41:52;;;;;;;9.38;6.22;;;16.10;96.90;;;;;;5055350;28;20040;-67
2022/08/16 02:44:18;;;;;;;9.98;6.05;;;16.20;96.90;;;;;;5056797;28;20307;-67
2022/08/16 02:46:44;;;;;;;9.00;6.13;;;16.20;96.80;;;;;;5055669;28;20029;-67
2022/08/16 02:49:10;;;;;;;8.43;5.85;;;16.20;96.90;;;;;;5055998;28;20037;-67
2022/08/16 02:51:38;;;;;;;11.68;6.00;;;16.30;96.90;;;;;;5055378;28;20414;-67
2022/08/16 02:54:07;;;;;;;8.50;6.15;;;16.30;96.80;;;;;;5067567;28;20044;-67
2022/08/16 02:56:33;;;;;;;12.73;6.03;;;16.30;96.90;;;;;;5069810;28;20151;-67
2022/08/16 02:58:59;;;;;;;10.32;6.13;;;16.30;97.00;;;;;;5055845;28;20104;-67
2022/08/16 03:01:27;;;;;;;9.05;5.53;;;16.40;97.00;;;;;;5055409;28;20108;-67
2022/08/16 03:03:54;;;;;;;17.90;6.78;;;16.40;96.90;;;;;;5065588;28;20028;-67
2022/08/16 03:06:21;;;;;;;9.80;6.28;;;16.50;96.80;;;;;;5071326;28;20024;-67
2022/08/16 03:08:48;;;;;;;9.20;6.47;;;16.50;96.70;;;;;;5057123;28;20127;-67
2022/08/16 03:11:17;;;;;;;10.10;6.22;;;16.50;96.70;;;;;;5058355;28;20140;-67
2022/08/16 03:13:51;;;;;;;8.57;5.72;;;16.50;96.60;;;;;;5059511;28;20029;-67
2022/08/16 03:16:18;;;;;;;8.95;5.78;;;16.50;96.60;;;;;;5078418;28;20108;-67
2022/08/16 03:18:47;;;;;;;11.10;5.85;;;16.50;96.70;;;;;;5070557;28;20104;-67
2022/08/16 03:21:12;;;;;;;9.55;6.13;;;16.50;96.70;;;;;;5059230;28;20040;-67
2022/08/16 03:23:38;;;;;;;7.35;5.80;;;16.50;96.80;;;;;;5059033;28;20021;-67
2022/08/16 03:26:04;;;;;;;8.63;5.63;;;16.40;96.80;;;;;;5076199;28;20036;-68
2022/08/16 03:28:30;;;;;;;12.32;6.57;;;16.40;96.80;;;;;;5059129;28;20029;-67
2022/08/16 03:30:56;;;;;;;8.23;5.70;;;16.40;96.80;;;;;;5058710;28;20482;-67
2022/08/16 03:33:22;;;;;;;10.38;6.30;;;16.30;96.80;;;;;;5058966;28;20116;-67
2022/08/16 03:35:50;;;;;;;7.97;5.93;;;16.30;96.90;;;;;;5060157;28;20049;-65
2022/08/16 03:38:17;;;;;;;11.32;5.70;;;16.20;96.90;;;;;;5058477;28;20100;-66
2022/08/16 03:40:43;;;;;;;8.73;5.95;;;16.20;96.90;;;;;;5057747;28;20013;-65
2022/08/16 03:43:10;;;;;;;11.45;6.47;;;16.10;96.80;;;;;;5058415;28;20414;-65
2022/08/16 03:45:39;;;;;;;12.45;6.60;;;16.10;96.90;;;;;;5066813;28;20021;-65
2022/08/16 03:48:06;;;;;;;9.15;6.50;;;16.00;96.90;;;;;;5058380;28;20047;-67
2022/08/16 03:50:34;;;;;;;9.80;6.78;;;16.00;97.10;;;;;;5064361;28;20028;-67
2022/08/16 03:52:59;;;;;;;9.43;6.25;;;16.00;97.00;;;;;;5077991;28;20378;-66
2022/08/16 03:55:25;;;;;;;10.63;7.00;;;15.90;97.00;;;;;;5071323;28;20092;-67
2022/08/16 03:57:52;;;;;;;8.57;6.60;;;16.00;97.10;;;;;;5058017;28;20030;-67
2022/08/16 04:00:22;;;;;;;9.35;6.40;;;16.00;97.00;;;;;;5058588;28;20024;-67
2022/08/16 04:02:48;;;;;;;12.63;6.85;;;16.00;97.10;;;;;;5058002;28;20035;-67
2022/08/16 04:05:16;;;;;;;8.60;6.35;;;15.90;97.00;;;;;;5065826;28;20318;-66
2022/08/16 04:07:42;;;;;;;11.55;6.35;;;15.80;96.80;;;;;;5072593;28;20040;-67
2022/08/16 04:10:10;;;;;;;12.70;6.93;;;15.70;96.80;;;;;;5075809;28;20059;-67
2022/08/16 04:12:37;;;;;;;11.70;7.38;;;15.60;96.60;;;;;;5077727;28;20473;-67
2022/08/16 04:15:05;;;;;;;12.93;7.60;;;15.60;96.50;;;;;;5077504;28;20025;-67
2022/08/16 04:17:31;;;;;;;13.20;8.27;;;15.50;96.40;;;;;;5077511;28;20028;-67
2022/08/16 04:19:57;;;;;;;11.13;7.43;;;15.50;96.40;;;;;;5077343;28;20027;-67
2022/08/16 04:22:23;;;;;;;12.25;7.50;;;15.40;96.20;;;;;;5059830;28;20024;-67
2022/08/16 04:24:49;;;;;;;11.98;7.47;;;15.40;96.20;;;;;;5073763;28;20040;-68
2022/08/16 04:27:15;;;;;;;9.65;7.10;;;15.50;96.10;;;;;;5061683;28;20032;-67
2022/08/16 04:29:41;;;;;;;11.48;7.32;;;15.60;96.30;;;;;;5057373;28;20029;-67
2022/08/16 04:32:07;;;;;;;9.85;7.55;;;15.60;96.40;;;;;;5057838;28;20426;-67
2022/08/16 04:34:38;;;;;;;12.40;6.90;;;15.60;96.20;;;;;;5067558;28;20031;-67
2022/08/16 04:37:07;;;;;;;9.38;6.70;;;15.70;96.50;;;;;;5074964;28;20060;-67
2022/08/16 04:39:35;;;;;;;10.25;7.18;;;15.70;96.60;;;;;;5076302;28;20024;-67
2022/08/16 04:42:01;;;;;;;13.05;7.22;;;15.80;96.70;;;;;;5065335;28;20067;-67
2022/08/16 04:44:26;;;;;;;11.80;7.82;;;15.80;96.80;;;;;;5060643;28;20096;-67
2022/08/16 04:46:52;;;;;;;11.27;7.00;;;15.90;96.90;;;;;;5067018;28;20045;-67
2022/08/16 04:49:21;;;;;;;11.73;7.00;;;15.90;97.10;;;;;;5057092;28;20032;-67
2022/08/16 04:51:48;;;;;;;8.85;6.65;;;16.00;97.00;;;;;;5057602;28;20409;-67
2022/08/16 04:54:13;;;;;;;11.75;7.72;;;15.90;97.00;;;;;;5064779;28;20024;-67
2022/08/16 04:56:39;;;;;;;9.65;6.63;;;15.90;97.00;;;;;;5070057;28;20032;-67
2022/08/16 04:59:07;;;;;;;11.18;7.13;;;16.00;97.00;;;;;;5057034;28;20385;-67
2022/08/16 05:01:33;;;;;;;12.32;7.03;;;16.00;97.00;;;;;;5072223;28;20032;-67
2022/08/16 05:03:59;;;;;;;9.88;7.10;;;16.00;97.10;;;;;;5075672;28;20039;-67
2022/08/16 05:06:26;;;;;;;12.10;7.40;;;16.10;97.00;;;;;;5076808;28;20023;-67
2022/08/16 05:08:51;;;;;;;11.10;6.93;;;16.10;97.10;;;;;;5076657;28;20045;-67
2022/08/16 05:11:17;;;;;;;11.07;7.28;;;16.20;97.20;;;;;;5075489;28;20028;-67
2022/08/16 05:13:46;;;;;;;12.93;6.85;;;16.30;97.20;;;;;;5074551;28;20095;-67
2022/08/16 05:16:24;;;;;;;10.55;6.70;;;16.30;97.20;;;;;;5076603;28;20020;-67
2022/08/16 05:18:52;;;;;;;10.95;6.50;;;16.40;97.10;;;;;;5076612;28;20090;-68
2022/08/16 05:21:18;;;;;;;9.77;6.72;;;16.40;97.20;;;;;;5076409;28;20024;-67
2022/08/16 05:23:44;;;;;;;11.48;7.30;;;16.40;97.10;;;;;;5069075;28;20021;-67
2022/08/16 05:26:10;;;;;;;10.38;7.05;;;16.50;97.20;;;;;;5074700;28;20038;-66
2022/08/16 05:28:36;;;;;;;11.52;6.47;;;16.50;97.00;;;;;;5074005;28;20028;-67
2022/08/16 05:31:02;;;;;;;13.98;7.25;;;16.60;97.00;;;;;;5080956;28;20029;-67
2022/08/16 05:33:28;;;;;;;10.93;6.53;;;16.60;96.90;;;;;;5078674;28;20489;-68
2022/08/16 05:35:53;;;;;;;13.23;7.18;;;16.70;96.90;;;;;;5076545;28;20119;-67
2022/08/16 05:38:26;;;;;;;11.38;6.07;;;16.80;96.80;;;;;;5075179;28;20071;-67
2022/08/16 05:40:59;;;;;;;9.50;6.82;;;16.90;96.60;;;;;;5064396;28;20028;-67
2022/08/16 05:43:25;;;;;;;8.57;5.95;;;17.00;96.50;;;;;;5054415;28;20036;-65
2022/08/16 05:45:51;;;;;;;8.07;5.93;;;17.10;96.40;;;;;;5063217;28;20024;-66
2022/08/16 05:48:16;;;;;;;7.80;5.72;;;17.20;96.30;;;;;;5075191;28;20028;-66
2022/08/16 05:50:42;;;;;;;9.80;5.85;;;17.30;96.10;;;;;;5076069;28;20035;-66
2022/08/16 05:53:08;;;;;;;10.10;5.82;;;17.40;96.10;;;;;;5077164;28;20025;-66
2022/08/16 05:55:34;;;;;;;10.85;6.10;;;17.60;95.00;;;;;;5074900;28;20024;-66
2022/08/16 05:58:00;;;;;;;11.00;6.22;;;17.70;94.80;;;;;;5068816;28;21674;-66
2022/08/16 06:00:26;;;;;;;9.45;5.53;;;17.90;94.40;;;;;;5055872;28;20029;-66
2022/08/16 06:02:52;;;;;;;8.75;6.00;;;18.10;94.10;;;;;;5063250;28;20024;-66
2022/08/16 06:05:17;;;;;;;9.55;5.35;;;18.20;93.20;;;;;;5078970;28;20031;-66
2022/08/16 06:07:44;;;;;;;9.52;5.38;;;18.30;93.50;;;;;;5075737;28;20032;-66
2022/08/16 06:10:11;;;;;;;12.48;5.70;;;18.30;93.40;;;;;;5074650;28;20032;-66
2022/08/16 06:12:40;;;;;;;8.27;5.07;;;18.50;93.30;;;;;;5077362;28;20329;-66
2022/08/16 06:15:11;;;;;;;9.77;5.53;;;18.60;93.20;;;;;;5074507;28;20055;-66
2022/08/16 06:17:37;;;;;;;9.05;5.68;;;18.70;92.30;;;;;;5074226;28;20115;-66
2022/08/16 06:20:04;;;;;;;10.45;5.70;;;18.90;91.60;;;;;;5074770;28;20107;-66
2022/08/16 06:22:30;;;;;;;9.25;5.35;;;19.00;91.10;;;;;;5074957;28;20024;-65
2022/08/16 06:24:55;;;;;;;8.35;5.13;;;19.10;91.00;;;;;;5051158;28;20025;-66
2022/08/16 06:27:21;;;;;;;9.40;5.07;;;19.30;90.90;;;;;;5052147;28;20063;-66
2022/08/16 06:29:47;;;;;;;7.53;4.50;;;19.40;89.70;;;;;;5055960;28;20051;-65
2022/08/16 06:32:13;;;;;;;8.15;4.80;;;19.60;89.40;;;;;;5052604;28;20068;-64
2022/08/16 06:34:38;;;;;;;7.55;4.95;;;19.70;89.10;;;;;;5074947;28;20050;-64
2022/08/16 06:37:05;;;;;;;8.57;5.38;;;19.90;88.30;;;;;;5056234;28;21651;-64
2022/08/16 06:39:34;;;;;;;11.52;5.28;;;20.00;87.80;;;;;;5072362;28;20066;-64
2022/08/16 06:42:00;;;;;;;10.20;5.57;;;20.00;87.20;;;;;;5074759;28;20059;-66
2022/08/16 06:44:26;;;;;;;6.68;4.82;;;20.00;86.40;;;;;;5079586;28;20410;-66
2022/08/16 06:46:52;;;;;;;9.63;5.45;;;19.90;87.00;;;;;;5074472;28;20326;-66
2022/08/16 06:49:20;;;;;;;7.78;5.43;;;19.90;86.60;;;;;;5077349;28;20029;-66
2022/08/16 06:51:45;;;;;;;8.68;5.43;;;20.00;86.60;;;;;;5066735;28;20162;-67
2022/08/16 06:54:17;;;;;;;10.43;5.82;;;20.00;86.80;;;;;;5055736;28;20385;-68
2022/08/16 06:56:43;;;;;;;13.20;6.10;;;20.10;86.80;;;;;;5055704;28;20025;-71
2022/08/16 06:59:09;;;;;;;9.32;5.60;;;20.20;86.60;;;;;;5058801;28;20333;-68
2022/08/16 07:01:35;;;;;;;8.65;5.25;;;20.30;86.30;;;;;;5073791;28;20027;-68
2022/08/16 07:04:01;;;;;;;10.13;5.22;;;20.50;86.30;;;;;;5078994;28;20036;-70
2022/08/16 07:06:30;;;;;;;10.15;5.15;;;20.50;86.40;;;;;;5065605;28;20035;-69
2022/08/16 07:08:56;;;;;;;8.40;5.10;;;20.50;86.80;;;;;;5079196;28;20457;-70
2022/08/16 07:11:21;;;;;;;8.75;5.20;;;20.50;86.40;;;;;;5054195;28;20032;-70
2022/08/16 07:13:49;;;;;;;11.60;5.63;;;20.50;86.20;;;;;;5064122;28;20330;-70
2022/08/16 07:16:15;;;;;;;10.25;5.65;;;20.70;86.30;;;;;;5067422;28;20038;-69
2022/08/16 07:18:45;;;;;;;9.70;5.75;;;20.70;86.30;;;;;;5064257;28;20075;-69
2022/08/16 07:21:12;;;;;;;10.65;4.90;;;20.90;85.80;;;;;;5058779;28;20037;-68
2022/08/16 07:23:39;;;;;;;9.75;5.80;;;20.90;85.10;;;;;;5059975;28;20039;-68
2022/08/16 07:26:09;;;;;;;9.32;5.35;;;21.10;84.20;;;;;;5053557;28;20039;-68
2022/08/16 07:28:34;;;;;;;11.32;5.57;;;21.10;84.30;;;;;;5055142;28;20429;-67
2022/08/16 07:31:01;;;;;;;9.88;5.30;;;21.10;83.80;;;;;;5053683;28;20032;-67
2022/08/16 07:33:29;;;;;;;12.32;5.47;;;21.10;83.90;;;;;;5054631;28;20078;-67
2022/08/16 07:35:56;;;;;;;8.93;5.40;;;21.10;83.20;;;;;;5068927;28;20023;-67
2022/08/16 07:38:25;;;;;;;11.48;5.82;;;21.10;84.30;;;;;;5064793;28;20043;-67
2022/08/16 07:40:50;;;;;;;11.20;5.90;;;21.10;83.50;;;;;;5058251;28;20052;-67
2022/08/16 07:43:16;;;;;;;10.50;5.60;;;21.10;83.20;;;;;;5053743;28;20037;-67
2022/08/16 07:45:42;;;;;;;9.00;5.70;;;21.10;83.30;;;;;;5052651;28;20033;-67
2022/08/16 07:48:10;;;;;;;10.57;6.05;;;21.30;83.90;;;;;;5077920;28;20055;-67
2022/08/16 07:50:36;;;;;;;8.68;5.30;;;21.40;83.20;;;;;;5079176;28;20335;-67
2022/08/16 07:53:01;;;;;;;8.45;4.97;;;21.80;81.70;;;;;;5063362;28;20051;-67
2022/08/16 07:55:27;;;;;;;10.65;4.75;;;22.70;80.10;;;;;;5054883;28;20029;-67
2022/08/16 07:57:53;;;;;;;7.82;4.00;;;24.00;75.20;;;;;;5057928;28;20086;-67
2022/08/16 08:00:19;;;;;;;6.68;4.03;;;25.40;72.30;;;;;;5056675;28;20074;-67
2022/08/16 08:02:46;;;;;;;10.95;3.75;;;26.60;69.90;;;;;;5054773;28;20035;-67
2022/08/16 08:05:13;;;;;;;9.00;4.25;;;27.00;67.90;;;;;;5068903;28;20032;-68
2022/08/16 08:07:38;;;;;;;9.13;3.97;;;26.70;67.80;;;;;;5080842;28;20301;-68
2022/08/16 08:10:05;;;;;;;9.02;3.85;;;26.80;67.70;;;;;;5078501;28;20071;-68
2022/08/16 08:12:31;;;;;;;10.32;4.65;;;27.00;67.00;;;;;;5075664;28;20056;-67
2022/08/16 08:14:57;;;;;;;10.10;4.47;;;27.10;67.10;;;;;;5066959;28;20029;-68
2022/08/16 08:17:22;;;;;;;10.25;4.25;;;26.20;68.10;;;;;;5072906;28;20299;-68
2022/08/16 08:19:48;;;;;;;8.48;4.35;;;25.90;69.70;;;;;;5070218;28;20025;-67
2022/08/16 08:22:14;;;;;;;7.50;3.95;;;26.00;70.00;;;;;;5070172;28;20028;-68
2022/08/16 08:24:39;;;;;;;9.35;4.18;;;26.50;68.40;;;;;;5073732;28;20090;-67
2022/08/16 08:27:07;;;;;;;7.97;3.95;;;27.20;67.30;;;;;;5080713;28;20029;-68
2022/08/16 08:29:35;;;;;;;7.55;3.88;;;27.40;66.00;;;;;;5071762;28;20068;-68
2022/08/16 08:32:01;;;;;;;7.72;4.03;;;26.90;67.00;;;;;;5058794;28;20449;-68
2022/08/16 08:34:27;;;;;;;7.88;4.10;;;27.40;67.70;;;;;;5063434;28;20229;-68
2022/08/16 08:36:53;;;;;;;8.98;4.20;;;27.90;65.60;;;;;;5066647;28;20103;-69
2022/08/16 08:39:18;;;;;;;9.18;3.75;;;28.80;64.10;;;;;;5077060;28;20029;-67
2022/08/16 08:41:45;;;;;;;5.93;3.80;;;29.20;62.50;;;;;;5075253;28;20024;-67
2022/08/16 08:44:10;;;;;;;7.80;3.42;;;29.50;61.80;;;;;;5065234;28;20059;-67
2022/08/16 08:46:36;;;;;;;9.35;3.72;;;29.90;61.00;;;;;;5057285;28;20032;-67
2022/08/16 08:49:04;;;;;;;7.47;3.63;;;30.00;60.80;;;;;;5057267;28;20043;-67
2022/08/16 08:51:30;;;;;;;7.25;3.70;;;30.20;60.60;;;;;;5057717;28;20025;-66
2022/08/16 08:53:56;;;;;;;6.57;3.42;;;29.60;60.80;;;;;;5067083;28;20427;-67
2022/08/16 08:56:21;;;;;;;8.30;3.90;;;28.90;62.10;;;;;;5055608;28;20071;-67
2022/08/16 08:58:47;;;;;;;8.25;3.50;;;28.30;62.90;;;;;;5056339;28;20017;-67
2022/08/16 09:01:16;;;;;;;11.15;4.60;;;27.80;63.30;;;;;;5057002;28;20357;-67
2022/08/16 09:03:41;;;;;;;6.45;4.00;;;28.10;63.40;;;;;;5075044;28;20522;-67
2022/08/16 09:06:07;;;;;;;8.95;4.30;;;27.90;63.70;;;;;;5076705;28;20029;-68
2022/08/16 09:08:34;;;;;;;5.72;3.38;;;28.20;63.70;;;;;;5059243;28;20049;-68
2022/08/16 09:11:00;;;;;;;10.07;4.10;;;28.20;63.80;;;;;;5055572;28;20021;-67
2022/08/16 09:13:26;;;;;;;7.68;3.38;;;28.10;64.00;;;;;;5065375;28;20025;-67
2022/08/16 09:15:54;;;;;;;8.32;4.10;;;27.80;66.60;;;;;;5064558;28;20024;-67
2022/08/16 09:18:21;;;;;;;7.65;3.72;;;28.40;64.40;;;;;;5061674;28;20040;-68
2022/08/16 09:20:51;;;;;;;5.82;3.42;;;28.90;63.50;;;;;;5056458;28;20029;-67
2022/08/16 09:23:18;;;;;;;9.68;3.83;;;28.80;64.70;;;;;;5071311;28;20032;-67
2022/08/16 09:25:44;;;;;;;10.07;4.10;;;29.70;62.30;;;;;;5075329;28;20020;-65
2022/08/16 09:28:10;;;;;;;9.23;3.53;;;29.60;61.20;;;;;;5071650;28;20029;-65
2022/08/16 09:30:36;;;;;;;6.05;3.50;;;28.90;63.20;;;;;;5056487;28;20029;-65
2022/08/16 09:33:04;;;;;;;11.95;3.92;;;28.10;64.30;;;;;;5068067;28;20444;-65
2022/08/16 09:35:30;;;;;;;8.65;4.40;;;26.90;65.80;;;;;;5077489;28;20062;-67
2022/08/16 09:37:56;;;;;;;7.15;3.53;;;26.00;68.30;;;;;;5067675;28;20025;-66
2022/08/16 09:40:22;;;;;;;9.25;3.83;;;26.70;66.80;;;;;;5054986;28;20464;-67
2022/08/16 09:42:48;;;;;;;7.40;3.10;;;27.60;64.60;;;;;;5068644;28;20410;-67
2022/08/16 09:45:14;;;;;;;8.80;3.90;;;28.90;63.20;;;;;;5076245;28;20031;-67
2022/08/16 09:47:41;;;;;;;5.53;3.30;;;29.90;59.80;;;;;;5068582;28;20090;-67
2022/08/16 09:50:09;;;;;;;7.25;3.60;;;29.50;60.10;;;;;;5075629;28;20031;-67
2022/08/16 09:52:38;;;;;;;8.40;3.50;;;29.00;61.70;;;;;;5076439;28;20062;-67
2022/08/16 09:55:07;;;;;;;7.43;3.13;;;29.40;60.80;;;;;;5074869;28;20083;-67
2022/08/16 09:57:32;;;;;;;7.82;3.65;;;30.10;58.80;;;;;;5079162;28;20336;-67
2022/08/16 10:00:00;;;;;;;7.53;3.00;;;31.00;57.50;;;;;;5075890;28;20088;-68
2022/08/16 10:02:27;;;;;;;9.10;3.60;;;31.50;57.20;;;;;;5072824;28;20125;-68
2022/08/16 10:04:56;;;;;;;7.03;3.35;;;32.30;55.60;;;;;;5079153;28;20357;-68
2022/08/16 10:07:27;;;;;;;7.28;3.15;;;32.40;54.80;;;;;;5066605;28;20033;-68
2022/08/16 10:09:52;;;;;;;7.22;3.10;;;32.00;55.70;;;;;;5062905;28;20310;-68
2022/08/16 10:15:07;;;;;;;6.97;3.20;;;30.70;58.20;;;;;;5075648;28;20051;-67
2022/08/16 10:17:34;;;;;;;6.85;3.25;;;29.20;60.90;;;;;;5079142;28;20384;-67
2022/08/16 10:20:00;;;;;;;7.93;3.38;;;29.70;60.40;;;;;;5081583;28;20328;-68
2022/08/16 10:22:26;;;;;;;8.00;3.67;;;30.70;57.40;;;;;;5079897;28;20025;-68
2022/08/16 10:24:52;;;;;;;5.53;3.25;;;30.30;57.20;;;;;;5080061;28;20024;-67
2022/08/16 10:27:19;;;;;;;6.75;3.60;;;29.20;58.80;;;;;;5079850;28;20463;-68
2022/08/16 10:29:45;;;;;;;6.22;3.53;;;29.10;59.80;;;;;;5082579;28;20433;-67
2022/08/16 10:32:11;;;;;;;5.38;3.10;;;29.20;58.90;;;;;;5084326;28;20414;-67
2022/08/16 10:34:36;;;;;;;5.70;3.17;;;29.20;60.20;;;;;;5082361;28;20028;-67
2022/08/16 10:37:02;;;;;;;5.82;3.10;;;29.70;59.00;;;;;;5065077;28;20028;-67
2022/08/16 10:39:30;;;;;;;7.25;3.10;;;29.40;59.10;;;;;;5061297;28;20013;-67
2022/08/16 10:41:55;;;;;;;5.53;3.03;;;29.50;58.20;;;;;;5083682;28;20028;-68
2022/08/16 10:44:21;;;;;;;8.57;3.40;;;30.20;57.70;;;;;;5082245;28;20035;-67
2022/08/16 10:46:48;;;;;;;5.82;3.15;;;30.70;56.70;;;;;;5067462;28;20146;-67
2022/08/16 10:49:13;;;;;;;5.97;3.58;;;30.60;56.60;;;;;;5062256;28;20029;-67
2022/08/16 10:51:40;;;;;;;10.18;3.05;;;30.70;57.40;;;;;;5077415;28;20040;-67
2022/08/16 10:54:05;;;;;;;6.82;2.75;;;31.50;55.20;;;;;;5079882;28;20104;-67
2022/08/16 10:56:32;;;;;;;8.73;3.08;;;32.00;54.20;;;;;;5069932;28;20124;-67
2022/08/16 10:58:58;;;;;;;7.03;2.97;;;32.40;54.30;;;;;;5062213;28;20025;-68
2022/08/16 11:01:25;;;;;;;5.60;2.95;;;32.30;53.50;;;;;;5074700;28;20024;-68
2022/08/16 11:03:52;;;;;;;7.40;3.22;;;31.20;55.40;;;;;;5079508;28;20477;-68
2022/08/16 11:06:18;;;;;;;6.38;2.50;;;31.30;55.60;;;;;;5072973;28;20036;-68
2022/08/16 11:08:44;;;;;;;6.78;2.80;;;31.50;54.70;;;;;;5062552;28;20053;-68
2022/08/16 11:11:12;;;;;;;6.07;3.13;;;31.60;55.00;;;;;;5078608;28;20028;-68
2022/08/16 11:13:38;;;;;;;6.97;3.03;;;31.70;53.20;;;;;;5077033;28;20366;-67
2022/08/16 11:16:04;;;;;;;6.95;3.58;;;31.20;54.10;;;;;;5078737;28;20051;-68
2022/08/16 11:18:29;;;;;;;7.22;3.15;;;31.00;54.30;;;;;;5082042;28;20112;-68
2022/08/16 11:20:57;;;;;;;5.68;2.60;;;31.20;54.20;;;;;;5079141;28;20374;-68
2022/08/16 11:23:23;;;;;;;5.50;2.65;;;31.50;54.90;;;;;;5061824;28;20418;-68
2022/08/16 11:25:49;;;;;;;6.00;2.92;;;32.40;53.10;;;;;;5075607;28;20366;-68
2022/08/16 11:28:15;;;;;;;8.25;3.45;;;32.50;51.90;;;;;;5076799;28;20107;-68
2022/08/16 11:30:41;;;;;;;5.80;2.97;;;31.40;53.70;;;;;;5076328;28;20048;-67
2022/08/16 11:33:07;;;;;;;7.85;3.25;;;31.10;53.70;;;;;;5058962;28;20025;-67
2022/08/16 11:35:35;;;;;;;7.70;2.63;;;31.30;54.20;;;;;;5058650;28;20457;-68
2022/08/16 11:38:04;;;;;;;5.80;3.20;;;31.20;53.60;;;;;;5070003;28;20025;-68
2022/08/16 11:40:37;;;;;;;5.30;3.00;;;31.70;53.60;;;;;;5077305;28;20038;-68
2022/08/16 11:43:04;;;;;;;7.30;2.95;;;31.30;53.70;;;;;;5061578;28;20098;-67
2022/08/16 11:45:29;;;;;;;8.50;3.30;;;31.50;54.20;;;;;;5078597;28;20032;-68
2022/08/16 11:47:55;;;;;;;8.02;2.88;;;31.80;53.20;;;;;;5061775;28;20033;-68
2022/08/16 11:50:23;;;;;;;5.70;2.97;;;31.00;53.30;;;;;;5058459;28;20029;-67
2022/08/16 11:52:48;;;;;;;8.15;3.30;;;30.30;55.50;;;;;;5059063;28;20124;-68
2022/08/16 11:55:14;;;;;;;6.75;3.42;;;30.70;55.20;;;;;;5076959;28;20384;-68
2022/08/16 11:57:40;;;;;;;7.07;3.05;;;30.70;55.20;;;;;;5065029;28;20033;-68
2022/08/16 12:00:13;;;;;;;8.82;3.10;;;29.90;55.40;;;;;;5058275;28;20063;-67
2022/08/16 12:02:38;;;;;;;5.80;3.30;;;28.70;57.80;;;;;;5058421;28;20322;-67
2022/08/16 12:05:07;;;;;;;6.55;3.35;;;29.10;58.70;;;;;;5075746;28;20086;-67
2022/08/16 12:07:36;;;;;;;7.93;2.80;;;30.10;56.30;;;;;;5065847;28;20029;-68
2022/08/16 12:10:09;;;;;;;7.00;3.25;;;31.00;55.10;;;;;;5056613;28;20059;-68
2022/08/16 12:12:35;;;;;;;7.33;2.90;;;31.90;53.70;;;;;;5058303;28;20410;-68
2022/08/16 12:15:00;;;;;;;7.35;3.10;;;32.70;52.80;;;;;;5074894;28;20275;-68
2022/08/16 12:17:28;;;;;;;9.10;3.15;;;32.00;52.40;;;;;;5066411;28;20037;-67
2022/08/16 12:19:54;;;;;;;5.82;3.30;;;31.70;53.50;;;;;;5057699;28;20142;-66
2022/08/16 12:22:20;;;;;;;7.22;3.35;;;31.10;53.80;;;;;;5066687;28;20416;-66
2022/08/16 12:24:47;;;;;;;6.40;3.42;;;30.50;54.30;;;;;;5056554;28;20025;-66
2022/08/16 12:27:12;;;;;;;5.97;3.15;;;30.10;54.40;;;;;;5058180;28;20033;-66
2022/08/16 12:29:38;;;;;;;5.57;3.15;;;30.70;55.60;;;;;;5076502;28;20519;-66
2022/08/16 12:32:04;;;;;;;7.75;3.25;;;31.00;53.80;;;;;;5071255;28;20610;-68
2022/08/16 12:34:30;;;;;;;5.93;2.80;;;31.10;53.80;;;;;;5069555;28;20031;-68
2022/08/16 12:36:56;;;;;;;5.32;2.90;;;30.60;54.50;;;;;;5072663;28;20120;-68
2022/08/16 12:39:22;;;;;;;7.38;3.42;;;30.80;54.60;;;;;;5056063;28;20013;-68
2022/08/16 12:41:48;;;;;;;6.90;2.80;;;30.90;53.20;;;;;;5060338;28;20036;-68
2022/08/16 12:44:14;;;;;;;8.50;3.05;;;31.00;54.30;;;;;;5071584;28;20056;-68